createdAt,value
2019-02-27T00:00:19.815Z,54.47
2019-02-27T00:03:07.595Z,53.63
2019-02-27T00:05:55.485Z,53.82
2019-02-27T00:08:43.493Z,53.73
2019-02-27T00:11:31.387Z,53.54
2019-02-27T00:14:19.259Z,52.52
2019-02-27T00:17:08.295Z,52.17
2019-02-27T00:19:56.292Z,52.73
2019-02-27T00:22:44.408Z,53.26
2019-02-27T00:25:35.917Z,53.65
2019-02-27T00:28:23.427Z,52.62
2019-02-27T00:31:12.098Z,52.58
2019-02-27T00:34:00.533Z,52.65
2019-02-27T00:36:48.890Z,52.88
2019-02-27T00:39:36.747Z,53.06
2019-02-27T00:42:33.260Z,53.50
2019-02-27T00:45:14.251Z,53.79
2019-02-27T00:48:02.585Z,54.32
2019-02-27T00:50:50.410Z,55.36
2019-02-27T00:53:38.592Z,55.88
2019-02-27T00:56:26.628Z,56.14
2019-02-27T00:59:14.969Z,55.96
2019-02-27T01:02:03.278Z,55.81
2019-02-27T01:04:50.827Z,56.29
2019-02-27T01:07:38.918Z,56.33
2019-02-27T01:10:27.027Z,56.88
2019-02-27T01:13:14.673Z,56.86
2019-02-27T01:16:02.832Z,57.28
2019-02-27T01:18:51.051Z,56.97
2019-02-27T01:21:39.029Z,57.09
2019-02-27T01:24:27.329Z,57.08
2019-02-27T01:27:15.493Z,57.20
2019-02-27T01:30:03.282Z,56.81
2019-02-27T01:32:51.508Z,56.61
2019-02-27T01:35:40.029Z,56.25
2019-02-27T01:38:27.831Z,55.50
2019-02-27T01:41:16.070Z,53.84
2019-02-27T01:44:04.178Z,55.06
2019-02-27T01:46:54.536Z,54.50
2019-02-27T01:49:41.931Z,55.58
2019-02-27T01:52:33.952Z,56.47
2019-02-27T01:55:21.827Z,56.58
2019-02-27T01:58:09.611Z,57.02
2019-02-27T02:00:58.119Z,57.02
2019-02-27T02:03:47.461Z,55.50
2019-02-27T02:06:35.320Z,55.16
2019-02-27T02:09:34.369Z,55.66
2019-02-27T02:12:28.812Z,56.29
2019-02-27T02:16:19.416Z,56.89
2019-02-27T02:19:48.775Z,56.78
2019-02-27T02:23:14.086Z,56.42
2019-02-27T02:26:28.021Z,56.70
2019-02-27T02:29:59.101Z,56.88
2019-02-27T02:33:00.007Z,56.68
2019-02-27T02:36:43.154Z,57.06
2019-02-27T02:40:11.079Z,57.55
2019-02-27T02:43:23.696Z,58.17
2019-02-27T02:46:36.078Z,58.72
2019-02-27T02:50:08.534Z,58.86
2019-02-27T02:53:11.829Z,58.35
2019-02-27T02:56:24.749Z,58.77
2019-02-27T02:59:37.912Z,57.46
2019-02-27T03:02:39.976Z,57.46
2019-02-27T03:06:12.201Z,57.25
2019-02-27T03:09:36.592Z,57.00
2019-02-27T03:13:33.352Z,56.36
2019-02-27T03:17:20.393Z,56.34
2019-02-27T03:20:43.965Z,55.78
2019-02-27T03:24:01.420Z,55.44
2019-02-27T03:27:30.938Z,55.55
2019-02-27T03:30:57.581Z,56.06
2019-02-27T03:34:22.043Z,55.69
2019-02-27T03:37:33.439Z,55.18
2019-02-27T03:40:48.127Z,55.34
2019-02-27T03:43:55.916Z,55.93
2019-02-27T03:47:16.681Z,56.46
2019-02-27T03:50:49.411Z,55.85
2019-02-27T03:54:07.677Z,55.70
2019-02-27T03:57:32.915Z,56.03
2019-02-27T04:00:30.834Z,56.53
2019-02-27T04:04:05.846Z,56.33
2019-02-27T04:07:46.292Z,57.05
2019-02-27T04:10:34.427Z,57.48
2019-02-27T04:13:26.413Z,58.44
2019-02-27T04:16:11.902Z,58.98
2019-02-27T04:19:04.574Z,59.25
2019-02-27T04:21:50.010Z,59.35
2019-02-27T04:24:38.000Z,59.27
2019-02-27T04:27:25.972Z,60.26
2019-02-27T04:30:16.468Z,57.95
2019-02-27T04:33:04.332Z,57.74
2019-02-27T04:35:52.701Z,58.76
2019-02-27T04:38:40.687Z,58.57
2019-02-27T04:41:28.865Z,58.54
2019-02-27T04:44:16.937Z,58.77
2019-02-27T04:47:04.967Z,58.43
2019-02-27T04:49:52.950Z,58.24
2019-02-27T04:52:41.137Z,58.19
2019-02-27T04:55:29.321Z,58.50
2019-02-27T04:58:17.412Z,58.34
2019-02-27T05:01:05.574Z,58.47
2019-02-27T05:03:53.515Z,58.96
2019-02-27T05:06:41.404Z,58.85
2019-02-27T05:09:33.544Z,58.97
2019-02-27T05:12:19.296Z,59.03
2019-02-27T05:15:07.231Z,59.03
2019-02-27T05:17:56.219Z,59.08
2019-02-27T05:20:45.670Z,58.79
2019-02-27T05:23:34.186Z,58.52
2019-02-27T05:26:22.324Z,58.73
2019-02-27T05:29:10.489Z,58.62
2019-02-27T05:31:58.698Z,58.68
2019-02-27T05:34:49.828Z,59.10
2019-02-27T05:37:39.260Z,58.78
2019-02-27T05:40:26.668Z,58.52
2019-02-27T05:43:14.534Z,58.47
2019-02-27T05:46:03.267Z,58.77
2019-02-27T05:48:53.352Z,59.28
2019-02-27T05:51:41.187Z,59.19
2019-02-27T05:54:30.022Z,59.20
2019-02-27T05:57:21.051Z,59.42
2019-02-27T06:00:11.801Z,59.21
2019-02-27T06:02:59.820Z,59.78
2019-02-27T06:05:49.784Z,59.40
2019-02-27T06:08:38.112Z,59.30
2019-02-27T06:11:27.056Z,59.13
2019-02-27T06:14:15.864Z,58.75
2019-02-27T06:17:04.029Z,58.33
2019-02-27T06:19:51.697Z,58.44
2019-02-27T06:22:39.736Z,58.88
2019-02-27T06:25:27.399Z,59.55
2019-02-27T06:28:18.525Z,59.18
2019-02-27T06:31:05.118Z,58.81
2019-02-27T06:33:53.263Z,58.30
2019-02-27T06:36:42.875Z,57.44
2019-02-27T06:39:34.165Z,57.85
2019-02-27T06:42:20.259Z,58.26
2019-02-27T06:45:10.211Z,57.83
2019-02-27T06:47:59.377Z,57.48
2019-02-27T06:50:48.900Z,56.48
2019-02-27T06:53:37.628Z,54.97
2019-02-27T06:56:25.677Z,53.19
2019-02-27T06:59:13.453Z,51.22
2019-02-27T07:02:01.367Z,49.38
2019-02-27T07:04:49.479Z,47.97
2019-02-27T07:07:37.601Z,48.13
2019-02-27T07:10:25.340Z,48.13
2019-02-27T07:13:13.194Z,48.50
2019-02-27T07:16:01.526Z,49.84
2019-02-27T07:18:49.721Z,51.07
2019-02-27T07:21:37.884Z,51.71
2019-02-27T07:24:26.121Z,52.03
2019-02-27T07:27:13.877Z,51.81
2019-02-27T07:30:01.561Z,50.28
2019-02-27T07:32:49.747Z,47.69
2019-02-27T07:35:37.857Z,46.68
2019-02-27T07:38:26.357Z,45.64
2019-02-27T07:41:17.475Z,44.82
2019-02-27T07:44:03.617Z,44.31
2019-02-27T07:46:51.563Z,43.02
2019-02-27T07:49:39.514Z,42.45
2019-02-27T07:52:32.112Z,41.65
2019-02-27T07:55:22.013Z,40.97
2019-02-27T07:58:06.131Z,41.75
2019-02-27T08:00:53.787Z,41.44
2019-02-27T08:03:44.813Z,41.45
2019-02-27T08:06:31.633Z,40.85
2019-02-27T08:09:19.411Z,40.54
2019-02-27T08:12:07.105Z,40.86
2019-02-27T08:14:55.069Z,40.97
2019-02-27T08:17:42.852Z,41.08
2019-02-27T08:20:31.127Z,40.56
2019-02-27T08:23:18.772Z,40.78
2019-02-27T08:26:07.025Z,40.45
2019-02-27T08:28:55.192Z,40.68
2019-02-27T08:31:43.377Z,40.71
2019-02-27T08:34:31.336Z,41.16
2019-02-27T08:37:20.280Z,41.25
2019-02-27T08:40:09.270Z,40.65
2019-02-27T08:42:57.309Z,40.74
2019-02-27T08:45:45.698Z,42.20
2019-02-27T08:48:33.586Z,42.34
2019-02-27T08:51:21.764Z,42.38
2019-02-27T08:54:09.800Z,42.07
2019-02-27T08:56:58.010Z,41.70
2019-02-27T08:59:46.102Z,40.69
2019-02-27T09:02:34.282Z,41.13
2019-02-27T09:05:23.452Z,40.32
2019-02-27T09:08:11.425Z,40.03
2019-02-27T09:11:05.363Z,39.97
2019-02-27T09:13:49.200Z,40.50
2019-02-27T09:16:37.277Z,41.09
2019-02-27T09:19:25.236Z,41.08
2019-02-27T09:22:13.218Z,40.57
2019-02-27T09:25:01.257Z,40.89
2019-02-27T09:27:49.218Z,41.38
2019-02-27T09:30:37.250Z,41.10
2019-02-27T09:33:25.132Z,40.91
2019-02-27T09:36:13.110Z,40.77
2019-02-27T09:39:01.105Z,41.26
2019-02-27T09:41:48.950Z,41.57
2019-02-27T09:44:37.268Z,41.15
2019-02-27T09:47:25.911Z,40.77
2019-02-27T09:50:27.197Z,40.55
2019-02-27T09:53:15.150Z,40.94
2019-02-27T09:56:02.930Z,40.63
2019-02-27T09:58:50.634Z,40.84
2019-02-27T10:01:38.466Z,40.82
2019-02-27T10:04:28.818Z,39.92
2019-02-27T10:07:17.112Z,40.57
2019-02-27T10:10:10.238Z,40.28
2019-02-27T10:12:55.799Z,40.59
2019-02-27T10:15:43.765Z,40.06
2019-02-27T10:18:31.511Z,39.42
2019-02-27T10:21:19.185Z,39.82
2019-02-27T10:24:07.525Z,39.56
2019-02-27T10:26:55.609Z,39.22
2019-02-27T10:29:47.765Z,38.90
2019-02-27T10:32:36.459Z,38.45
2019-02-27T10:35:23.147Z,38.99
2019-02-27T10:38:11.102Z,38.75
2019-02-27T10:40:59.169Z,38.15
2019-02-27T10:43:46.874Z,38.28
2019-02-27T10:46:34.904Z,37.97
2019-02-27T10:49:23.125Z,37.79
2019-02-27T10:52:11.435Z,37.30
2019-02-27T10:54:59.287Z,37.34
2019-02-27T10:57:47.178Z,37.46
2019-02-27T11:00:35.195Z,37.46
2019-02-27T11:03:26.406Z,36.97
2019-02-27T11:06:13.089Z,37.01
2019-02-27T11:09:04.504Z,36.56
2019-02-27T11:11:53.754Z,36.61
2019-02-27T11:14:40.548Z,36.18
2019-02-27T11:17:28.197Z,35.93
2019-02-27T11:20:20.301Z,36.36
2019-02-27T11:23:07.110Z,35.91
2019-02-27T11:25:56.963Z,35.87
2019-02-27T11:28:47.578Z,35.42
2019-02-27T11:31:34.777Z,35.48
2019-02-27T11:34:23.160Z,35.13
2019-02-27T11:37:13.787Z,35.60
2019-02-27T11:40:01.033Z,35.47
2019-02-27T11:42:48.961Z,35.75
2019-02-27T11:45:36.951Z,35.12
2019-02-27T11:48:25.110Z,35.35
2019-02-27T11:51:13.959Z,35.13
2019-02-27T11:54:04.205Z,35.35
2019-02-27T11:56:56.197Z,35.20
2019-02-27T11:59:41.588Z,35.51
2019-02-27T12:02:36.727Z,35.01
2019-02-27T12:05:19.449Z,34.29
2019-02-27T12:08:07.264Z,34.44
2019-02-27T12:10:55.182Z,33.94
2019-02-27T12:13:43.452Z,33.33
2019-02-27T12:16:33.343Z,33.84
2019-02-27T12:19:21.398Z,33.95
2019-02-27T12:22:09.628Z,34.50
2019-02-27T12:24:58.348Z,33.85
2019-02-27T12:27:49.929Z,33.86
2019-02-27T12:30:37.341Z,33.45
2019-02-27T12:33:29.143Z,33.94
2019-02-27T12:36:18.736Z,33.90
2019-02-27T12:39:08.179Z,34.05
2019-02-27T12:41:55.837Z,34.41
2019-02-27T12:44:44.011Z,34.55
2019-02-27T12:47:32.106Z,34.25
2019-02-27T12:50:21.241Z,33.50
2019-02-27T12:53:08.892Z,32.49
2019-02-27T12:55:57.049Z,33.04
2019-02-27T12:58:45.013Z,32.94
2019-02-27T13:01:32.988Z,32.58
2019-02-27T13:04:20.964Z,32.44
2019-02-27T13:07:10.773Z,32.12
2019-02-27T13:09:59.370Z,31.55
2019-02-27T13:12:49.164Z,32.69
2019-02-27T13:15:38.350Z,32.97
2019-02-27T13:18:31.600Z,32.89
2019-02-27T13:21:20.187Z,33.18
2019-02-27T13:24:06.020Z,32.66
2019-02-27T13:26:54.200Z,32.77
2019-02-27T13:29:42.462Z,32.28
2019-02-27T13:32:30.563Z,32.06
2019-02-27T13:35:20.134Z,31.41
2019-02-27T13:38:08.441Z,31.48
2019-02-27T13:40:56.679Z,31.53
2019-02-27T13:43:45.316Z,31.89
2019-02-27T13:46:32.916Z,31.64
2019-02-27T13:49:21.186Z,31.67
2019-02-27T13:52:12.312Z,30.71
2019-02-27T13:54:58.765Z,28.66
2019-02-27T13:57:47.016Z,29.05
2019-02-27T14:00:35.012Z,29.35
2019-02-27T14:03:22.894Z,29.31
2019-02-27T14:06:11.238Z,30.58
2019-02-27T14:08:59.240Z,30.30
2019-02-27T14:11:47.245Z,30.44
2019-02-27T14:14:35.373Z,27.71
2019-02-27T14:17:23.363Z,27.78
2019-02-27T14:20:13.580Z,28.49
2019-02-27T14:23:01.519Z,28.61
2019-02-27T14:25:49.748Z,29.88
2019-02-27T14:28:37.652Z,28.20
2019-02-27T14:31:25.656Z,27.59
2019-02-27T14:34:13.475Z,27.72
2019-02-27T14:37:01.721Z,27.90
2019-02-27T14:39:49.844Z,27.78
2019-02-27T14:42:38.146Z,27.53
2019-02-27T14:45:26.146Z,27.30
2019-02-27T14:48:13.763Z,27.09
2019-02-27T14:51:01.694Z,27.15
2019-02-27T14:53:52.633Z,26.97
2019-02-27T14:56:41.612Z,27.05
2019-02-27T14:59:31.332Z,26.71
2019-02-27T15:02:22.066Z,26.84
2019-02-27T15:05:09.283Z,27.45
2019-02-27T15:07:57.112Z,25.83
2019-02-27T15:10:45.465Z,26.27
2019-02-27T15:13:33.698Z,25.57
2019-02-27T15:16:21.860Z,25.24
2019-02-27T15:19:09.731Z,25.56
2019-02-27T15:21:58.063Z,24.87
2019-02-27T15:24:46.366Z,24.63
2019-02-27T15:27:34.228Z,24.67
2019-02-27T15:30:23.515Z,25.15
2019-02-27T15:33:11.562Z,24.80
2019-02-27T15:36:00.084Z,24.24
2019-02-27T15:38:48.012Z,24.51
2019-02-27T15:41:36.195Z,24.70
2019-02-27T15:44:24.232Z,24.13
2019-02-27T15:47:12.657Z,24.63
2019-02-27T15:50:02.615Z,23.76
2019-02-27T15:52:50.068Z,23.85
2019-02-27T15:55:38.006Z,23.48
2019-02-27T15:58:28.176Z,23.46
2019-02-27T16:01:15.372Z,23.31
2019-02-27T16:04:03.368Z,23.60
2019-02-27T16:06:51.477Z,27.34
2019-02-27T16:09:39.599Z,23.90
2019-02-27T16:12:27.906Z,22.41
2019-02-27T16:15:16.954Z,22.67
2019-02-27T16:18:05.635Z,22.66
2019-02-27T16:20:53.708Z,22.91
2019-02-27T16:23:41.538Z,22.70
2019-02-27T16:26:29.599Z,22.99
2019-02-27T16:29:19.971Z,22.96
2019-02-27T16:32:07.326Z,22.62
2019-02-27T16:34:55.487Z,22.62
2019-02-27T16:37:43.798Z,23.06
2019-02-27T16:40:31.969Z,22.99
2019-02-27T16:43:19.879Z,22.74
2019-02-27T16:46:08.851Z,23.05
2019-02-27T16:48:56.748Z,23.04
2019-02-27T16:51:44.573Z,23.45
2019-02-27T16:54:32.355Z,27.11
2019-02-27T16:57:24.186Z,33.10
2019-02-27T17:00:10.592Z,33.50
2019-02-27T17:02:58.385Z,33.75
2019-02-27T17:05:46.354Z,33.87
2019-02-27T17:08:35.654Z,34.38
2019-02-27T17:11:23.618Z,34.43
2019-02-27T17:14:11.856Z,34.75
2019-02-27T17:16:59.975Z,34.69
2019-02-27T17:19:48.224Z,34.50
2019-02-27T17:22:36.278Z,33.35
2019-02-27T17:25:29.058Z,35.19
2019-02-27T17:28:14.482Z,36.86
2019-02-27T17:31:04.159Z,37.73
2019-02-27T17:33:52.703Z,38.02
2019-02-27T17:36:40.602Z,38.25
2019-02-27T17:39:30.564Z,38.36
2019-02-27T17:42:19.339Z,38.31
2019-02-27T17:45:10.107Z,38.34
2019-02-27T17:47:57.857Z,38.56
2019-02-27T17:50:49.543Z,38.83
2019-02-27T17:53:37.819Z,39.21
2019-02-27T17:56:25.674Z,39.77
2019-02-27T17:59:13.893Z,40.16
2019-02-27T18:02:01.958Z,40.45
2019-02-27T18:04:53.017Z,40.76
2019-02-27T18:07:40.316Z,41.03
2019-02-27T18:10:28.751Z,41.38
2019-02-27T18:13:16.663Z,41.67
2019-02-27T18:16:04.787Z,41.92
2019-02-27T18:18:52.882Z,41.40
2019-02-27T18:21:40.917Z,41.64
2019-02-27T18:24:33.324Z,42.00
2019-02-27T18:27:18.960Z,42.42
2019-02-27T18:30:07.910Z,42.62
2019-02-27T18:32:56.287Z,42.56
2019-02-27T18:35:44.262Z,42.34
2019-02-27T18:38:32.405Z,42.57
2019-02-27T18:41:20.541Z,42.62
2019-02-27T18:44:09.054Z,42.74
2019-02-27T18:46:59.785Z,42.85
2019-02-27T18:49:49.048Z,43.33
2019-02-27T18:52:38.233Z,43.45
2019-02-27T18:55:29.601Z,43.42
2019-02-27T18:58:14.660Z,43.64
2019-02-27T19:01:02.617Z,43.25
2019-02-27T19:03:50.540Z,42.89
2019-02-27T19:06:38.843Z,42.97
2019-02-27T19:09:29.295Z,42.90
2019-02-27T19:12:16.785Z,42.98
2019-02-27T19:15:05.023Z,43.09
2019-02-27T19:17:53.077Z,43.03
2019-02-27T19:20:41.201Z,43.20
2019-02-27T19:23:29.432Z,43.50
2019-02-27T19:26:17.504Z,43.55
2019-02-27T19:29:05.934Z,43.51
2019-02-27T19:31:53.856Z,43.43
2019-02-27T19:34:44.723Z,43.84
2019-02-27T19:37:32.005Z,44.25
2019-02-27T19:40:20.518Z,43.86
2019-02-27T19:43:08.337Z,44.40
2019-02-27T19:45:56.702Z,44.51
2019-02-27T19:48:45.043Z,44.97
2019-02-27T19:51:33.253Z,44.97
2019-02-27T19:54:21.255Z,44.86
2019-02-27T19:57:09.459Z,44.60
2019-02-27T19:59:59.109Z,45.07
2019-02-27T20:02:47.183Z,45.42
2019-02-27T20:05:36.385Z,45.74
2019-02-27T20:08:26.350Z,46.35
2019-02-27T20:11:14.624Z,46.36
2019-02-27T20:14:03.165Z,46.17
2019-02-27T20:16:54.920Z,45.82
2019-02-27T20:19:40.465Z,45.12
2019-02-27T20:22:28.524Z,44.74
2019-02-27T20:25:18.016Z,45.43
2019-02-27T20:28:06.079Z,45.26
2019-02-27T20:30:53.749Z,44.97
2019-02-27T20:33:41.654Z,44.96
2019-02-27T20:36:32.389Z,44.56
2019-02-27T20:39:18.878Z,44.74
2019-02-27T20:42:07.296Z,44.90
2019-02-27T20:44:55.310Z,45.11
2019-02-27T20:47:43.581Z,45.03
2019-02-27T20:50:35.768Z,44.93
2019-02-27T20:53:23.707Z,45.32
2019-02-27T20:56:11.941Z,45.44
2019-02-27T20:59:02.005Z,45.21
2019-02-27T21:01:49.664Z,45.03
2019-02-27T21:04:39.168Z,44.94
2019-02-27T21:07:27.131Z,44.88
2019-02-27T21:10:21.009Z,44.94
2019-02-27T21:13:06.821Z,45.00
2019-02-27T21:15:54.782Z,44.64
2019-02-27T21:18:42.631Z,44.86
2019-02-27T21:21:30.639Z,44.94
2019-02-27T21:24:18.722Z,45.05
2019-02-27T21:27:06.406Z,45.18
2019-02-27T21:29:54.760Z,44.96
2019-02-27T21:32:42.515Z,44.89
2019-02-27T21:35:30.679Z,45.08
2019-02-27T21:38:18.375Z,45.24
2019-02-27T21:41:11.359Z,45.24
2019-02-27T21:43:56.574Z,45.15
2019-02-27T21:46:47.245Z,45.47
2019-02-27T21:49:35.548Z,45.34
2019-02-27T21:52:23.559Z,45.49
2019-02-27T21:55:13.004Z,45.47
2019-02-27T21:58:01.442Z,45.80
2019-02-27T22:00:49.458Z,45.88
2019-02-27T22:03:38.392Z,46.19
2019-02-27T22:06:27.438Z,46.20
2019-02-27T22:09:15.678Z,46.43
2019-02-27T22:12:03.468Z,46.65
2019-02-27T22:14:51.105Z,46.79
2019-02-27T22:17:38.838Z,46.68
2019-02-27T22:20:26.973Z,46.58
2019-02-27T22:23:15.195Z,46.52
2019-02-27T22:26:04.273Z,46.66
2019-02-27T22:28:54.347Z,46.52
2019-02-27T22:31:41.740Z,46.80
2019-02-27T22:34:29.983Z,46.59
2019-02-27T22:37:18.566Z,46.46
2019-02-27T22:40:08.179Z,46.25
2019-02-27T22:42:56.255Z,46.16
2019-02-27T22:45:44.390Z,46.35
2019-02-27T22:48:32.516Z,47.05
2019-02-27T22:51:20.461Z,47.48
2019-02-27T22:54:08.663Z,48.19
2019-02-27T22:56:56.871Z,48.15
2019-02-27T22:59:45.177Z,48.15
2019-02-27T23:02:33.410Z,47.81
2019-02-27T23:05:21.258Z,47.16
2019-02-27T23:08:09.307Z,47.43
2019-02-27T23:10:57.990Z,46.98
2019-02-27T23:13:48.418Z,46.88
2019-02-27T23:16:36.364Z,46.70
2019-02-27T23:19:24.417Z,46.92
2019-02-27T23:22:12.410Z,47.20
2019-02-27T23:25:00.531Z,47.44
2019-02-27T23:27:48.362Z,47.34
2019-02-27T23:30:36.216Z,47.52
2019-02-27T23:33:24.722Z,47.55
2019-02-27T23:36:12.947Z,47.64
2019-02-27T23:39:01.142Z,47.87
2019-02-27T23:41:48.642Z,47.98
2019-02-27T23:44:38.785Z,48.22
2019-02-27T23:47:28.702Z,48.01
2019-02-27T23:50:15.807Z,47.82
2019-02-27T23:53:03.315Z,48.07
2019-02-27T23:55:51.170Z,48.33
2019-02-27T23:58:39.414Z,48.46
